createdAt,value
2019-02-21T00:02:00.223Z,25.07
2019-02-21T00:04:29.782Z,25.47
2019-02-21T00:06:59.265Z,25.53
2019-02-21T00:09:28.652Z,25.50
2019-02-21T00:11:57.969Z,23.97
2019-02-21T00:14:27.329Z,24.43
2019-02-21T00:16:56.740Z,24.33
2019-02-21T00:19:26.137Z,24.77
2019-02-21T00:21:55.500Z,26.07
2019-02-21T00:24:24.860Z,25.33
2019-02-21T00:26:54.335Z,24.70
2019-02-21T00:29:23.657Z,25.37
2019-02-21T00:31:53.021Z,25.83
2019-02-21T00:34:22.364Z,24.30
2019-02-21T00:36:51.742Z,25.27
2019-02-21T00:39:21.108Z,25.87
2019-02-21T00:41:50.755Z,25.20
2019-02-21T00:44:20.178Z,25.33
2019-02-21T00:46:49.578Z,25.87
2019-02-21T00:49:18.861Z,24.53
2019-02-21T00:51:48.167Z,24.30
2019-02-21T00:54:17.521Z,24.90
2019-02-21T00:56:46.832Z,24.17
2019-02-21T00:59:16.174Z,24.23
2019-02-21T01:01:45.474Z,25.53
2019-02-21T01:04:14.802Z,24.33
2019-02-21T01:06:44.130Z,24.73
2019-02-21T01:09:13.475Z,24.57
2019-02-21T01:11:42.795Z,25.10
2019-02-21T01:14:12.201Z,25.77
2019-02-21T01:16:41.702Z,25.97
2019-02-21T01:19:11.112Z,26.03
2019-02-21T01:21:40.464Z,24.07
2019-02-21T01:24:09.840Z,23.80
2019-02-21T01:26:39.221Z,27.00
2019-02-21T01:29:08.568Z,23.97
2019-02-21T01:31:37.940Z,24.77
2019-02-21T01:34:07.375Z,25.80
2019-02-21T01:36:49.081Z,25.00
2019-02-21T01:39:18.353Z,24.10
2019-02-21T01:41:47.665Z,23.83
2019-02-21T01:44:17.023Z,22.97
2019-02-21T01:46:46.462Z,23.93
2019-02-21T01:49:15.778Z,23.50
2019-02-21T01:51:45.061Z,22.40
2019-02-21T01:54:14.395Z,23.93
2019-02-21T01:56:46.765Z,23.07
2019-02-21T01:59:16.167Z,24.07
2019-02-21T02:01:45.497Z,23.67
2019-02-21T02:04:14.821Z,22.47
2019-02-21T02:06:44.157Z,23.23
2019-02-21T02:09:13.577Z,23.27
2019-02-21T02:11:42.903Z,22.20
2019-02-21T02:14:12.255Z,22.37
2019-02-21T02:16:41.556Z,22.70
2019-02-21T02:19:10.830Z,21.60
2019-02-21T02:21:40.133Z,22.70
2019-02-21T02:24:09.531Z,21.90
2019-02-21T02:26:38.861Z,22.67
2019-02-21T02:29:08.185Z,21.77
2019-02-21T02:31:37.519Z,22.17
2019-02-21T02:34:06.838Z,22.50
2019-02-21T02:36:36.260Z,22.30
2019-02-21T02:39:05.866Z,20.63
2019-02-21T02:41:35.251Z,22.77
2019-02-21T02:44:04.551Z,21.63
2019-02-21T02:46:33.898Z,21.93
2019-02-21T02:49:03.231Z,22.70
2019-02-21T02:51:32.633Z,20.70
2019-02-21T02:54:01.929Z,21.73
2019-02-21T02:56:31.237Z,20.93
2019-02-21T02:59:00.599Z,20.63
2019-02-21T03:01:34.891Z,22.40
2019-02-21T03:03:59.355Z,20.93
2019-02-21T03:06:28.666Z,21.13
2019-02-21T03:08:58.011Z,21.87
2019-02-21T03:11:27.349Z,22.33
2019-02-21T03:13:56.826Z,21.30
2019-02-21T03:16:26.175Z,20.87
2019-02-21T03:18:55.482Z,20.67
2019-02-21T03:21:24.778Z,20.40
2019-02-21T03:23:54.106Z,20.63
2019-02-21T03:26:23.395Z,20.83
2019-02-21T03:28:52.785Z,20.37
2019-02-21T03:31:22.083Z,20.27
2019-02-21T03:33:51.397Z,19.67
2019-02-21T03:36:20.733Z,18.20
2019-02-21T03:38:50.284Z,18.70
2019-02-21T03:41:19.748Z,19.87
2019-02-21T03:43:49.193Z,18.97
2019-02-21T03:46:18.586Z,17.10
2019-02-21T03:48:47.894Z,16.43
2019-02-21T03:51:17.218Z,15.67
2019-02-21T03:53:46.556Z,15.43
2019-02-21T03:56:15.885Z,14.83
2019-02-21T03:58:45.278Z,15.30
2019-02-21T04:01:14.610Z,15.73
2019-02-21T04:03:43.947Z,15.37
2019-02-21T04:06:13.292Z,15.27
2019-02-21T04:08:42.703Z,15.33
2019-02-21T04:11:12.098Z,15.00
2019-02-21T04:13:41.407Z,15.70
2019-02-21T04:16:10.756Z,15.40
2019-02-21T04:18:40.288Z,15.23
2019-02-21T04:21:09.584Z,16.77
2019-02-21T04:23:38.962Z,15.80
2019-02-21T04:26:08.381Z,15.77
2019-02-21T04:28:37.781Z,15.90
2019-02-21T04:31:07.087Z,15.90
2019-02-21T04:33:36.489Z,14.77
2019-02-21T04:36:05.877Z,15.63
2019-02-21T04:38:35.187Z,15.20
2019-02-21T04:41:04.746Z,16.53
2019-02-21T04:43:34.097Z,15.53
2019-02-21T04:46:03.498Z,14.77
2019-02-21T04:48:32.788Z,16.87
2019-02-21T04:51:02.099Z,16.57
2019-02-21T04:53:31.374Z,15.40
2019-02-21T04:56:00.705Z,15.93
2019-02-21T04:58:29.999Z,16.53
2019-02-21T05:00:59.298Z,17.23
2019-02-21T05:03:28.591Z,15.43
2019-02-21T05:05:58.041Z,15.37
2019-02-21T05:08:27.332Z,14.20
2019-02-21T05:10:56.732Z,16.97
2019-02-21T05:13:26.110Z,16.20
2019-02-21T05:15:55.527Z,16.17
2019-02-21T05:18:24.796Z,16.03
2019-02-21T05:20:54.173Z,16.23
2019-02-21T05:23:23.524Z,15.27
2019-02-21T05:25:52.812Z,15.57
2019-02-21T05:28:32.565Z,15.03
2019-02-21T05:31:08.810Z,15.30
2019-02-21T05:34:09.125Z,14.47
2019-02-21T05:37:00.169Z,13.60
2019-02-21T05:39:41.934Z,14.23
2019-02-21T05:42:29.910Z,14.30
2019-02-21T05:45:11.688Z,13.43
2019-02-21T05:47:46.435Z,13.30
2019-02-21T05:50:41.077Z,13.40
2019-02-21T05:53:24.133Z,14.17
2019-02-21T05:56:10.102Z,12.73
2019-02-21T05:58:49.837Z,13.57
2019-02-21T06:01:44.629Z,12.97
2019-02-21T06:04:31.869Z,13.10
2019-02-21T06:07:11.967Z,12.57
2019-02-21T06:09:47.029Z,12.10
2019-02-21T06:12:39.757Z,11.50
2019-02-21T06:15:28.151Z,12.80
2019-02-21T06:18:14.203Z,12.60
2019-02-21T06:20:58.790Z,12.30
2019-02-21T06:23:50.212Z,10.77
2019-02-21T06:26:33.971Z,11.67
2019-02-21T06:29:22.754Z,12.93
2019-02-21T06:31:52.335Z,13.77
2019-02-21T06:34:22.180Z,12.37
2019-02-21T06:36:51.420Z,12.07
2019-02-21T06:39:24.931Z,12.70
2019-02-21T06:41:59.777Z,13.70
2019-02-21T06:44:22.404Z,13.17
2019-02-21T06:46:51.682Z,12.47
2019-02-21T06:49:31.827Z,12.30
2019-02-21T06:51:50.438Z,12.67
2019-02-21T06:54:19.617Z,12.73
2019-02-21T06:56:48.955Z,13.10
2019-02-21T06:59:18.517Z,12.93
2019-02-21T07:01:47.855Z,12.53
2019-02-21T07:04:17.183Z,12.10
2019-02-21T07:06:46.455Z,11.50
2019-02-21T07:09:18.939Z,11.83
2019-02-21T07:11:48.189Z,12.27
2019-02-21T07:14:17.598Z,12.33
2019-02-21T07:16:47.382Z,12.23
2019-02-21T07:19:16.663Z,12.43
2019-02-21T07:21:45.927Z,12.07
2019-02-21T07:24:15.226Z,12.00
2019-02-21T07:26:44.497Z,12.83
2019-02-21T07:29:13.804Z,12.80
2019-02-21T07:31:45.049Z,12.63
2019-02-21T07:34:14.428Z,12.77
2019-02-21T07:36:43.932Z,12.67
2019-02-21T07:39:17.196Z,12.70
2019-02-21T07:41:42.608Z,13.13
2019-02-21T07:44:12.647Z,12.30
2019-02-21T07:46:41.435Z,13.80
2019-02-21T07:49:10.791Z,13.07
2019-02-21T07:51:41.569Z,13.40
2019-02-21T07:54:09.424Z,13.53
2019-02-21T07:56:42.073Z,14.43
2019-02-21T07:59:08.163Z,12.97
2019-02-21T08:01:37.561Z,14.23
2019-02-21T08:04:06.901Z,13.80
2019-02-21T08:06:36.167Z,14.23
2019-02-21T08:09:06.269Z,14.00
2019-02-21T08:11:35.693Z,13.97
2019-02-21T08:14:04.999Z,14.47
2019-02-21T08:16:34.383Z,14.07
2019-02-21T08:19:03.716Z,13.83
2019-02-21T08:21:33.227Z,14.73
2019-02-21T08:24:02.552Z,14.67
2019-02-21T08:26:31.910Z,15.07
2019-02-21T08:29:01.284Z,14.63
2019-02-21T08:31:30.576Z,15.00
2019-02-21T08:34:09.574Z,14.73
2019-02-21T08:36:39.089Z,13.53
2019-02-21T08:39:09.924Z,14.87
2019-02-21T08:41:39.195Z,15.97
2019-02-21T08:44:08.627Z,13.93
2019-02-21T08:46:38.052Z,15.20
2019-02-21T08:49:10.462Z,14.87
2019-02-21T08:51:39.905Z,14.70
2019-02-21T08:54:11.371Z,16.40
2019-02-21T08:56:38.558Z,15.50
2019-02-21T08:59:08.026Z,14.63
2019-02-21T09:01:37.476Z,13.53
2019-02-21T09:04:13.355Z,15.10
2019-02-21T09:06:36.209Z,14.83
2019-02-21T09:09:05.656Z,14.57
2019-02-21T09:11:34.931Z,14.17
2019-02-21T09:14:04.289Z,14.53
2019-02-21T09:16:33.552Z,13.63
2019-02-21T09:19:02.863Z,14.27
2019-02-21T09:21:32.164Z,12.83
2019-02-21T09:24:01.479Z,13.90
2019-02-21T09:26:30.919Z,13.63
2019-02-21T09:29:00.294Z,13.90
2019-02-21T09:31:29.594Z,13.50
2019-02-21T09:33:58.863Z,12.37
2019-02-21T09:36:28.132Z,13.03
2019-02-21T09:38:57.657Z,12.37
2019-02-21T09:41:28.683Z,12.93
2019-02-21T09:43:56.361Z,11.13
2019-02-21T09:46:25.706Z,11.40
2019-02-21T09:48:57.377Z,11.03
2019-02-21T09:51:30.165Z,11.40
2019-02-21T09:53:59.423Z,11.50
2019-02-21T09:56:30.719Z,12.20
2019-02-21T09:58:58.099Z,10.23
2019-02-21T10:01:27.486Z,10.73
2019-02-21T10:03:57.415Z,10.23
2019-02-21T10:06:26.129Z,9.23
2019-02-21T10:08:55.553Z,9.87
2019-02-21T10:11:24.891Z,10.30
2019-02-21T10:13:54.160Z,10.30
2019-02-21T10:16:23.750Z,10.97
2019-02-21T10:18:53.000Z,8.77
2019-02-21T10:21:23.877Z,11.43
2019-02-21T10:23:53.169Z,12.03
2019-02-21T10:26:23.011Z,12.17
2019-02-21T10:28:52.277Z,12.00
2019-02-21T10:31:21.954Z,12.23
2019-02-21T10:33:51.392Z,11.60
2019-02-21T10:36:20.693Z,12.13
2019-02-21T10:38:50.037Z,12.03
2019-02-21T10:41:19.454Z,11.77
2019-02-21T10:43:48.781Z,10.37
2019-02-21T10:46:18.300Z,11.30
2019-02-21T10:48:47.781Z,11.50
2019-02-21T10:51:17.162Z,11.83
2019-02-21T10:53:46.462Z,10.67
2019-02-21T10:56:15.778Z,11.97
2019-02-21T10:58:45.164Z,12.03
2019-02-21T11:01:14.457Z,12.23
2019-02-21T11:03:43.961Z,11.70
2019-02-21T11:06:13.341Z,13.63
2019-02-21T11:08:44.773Z,11.33
2019-02-21T11:11:11.911Z,12.30
2019-02-21T11:13:41.192Z,12.23
2019-02-21T11:16:10.497Z,12.27
2019-02-21T11:18:39.794Z,12.97
2019-02-21T11:21:09.079Z,12.87
2019-02-21T11:23:38.416Z,13.10
2019-02-21T11:26:07.727Z,14.20
2019-02-21T11:28:37.070Z,13.97
2019-02-21T11:31:06.401Z,14.20
2019-02-21T11:33:35.722Z,13.20
2019-02-21T11:36:04.998Z,12.73
2019-02-21T11:38:34.254Z,14.03
2019-02-21T11:41:03.591Z,15.37
2019-02-21T11:43:32.898Z,14.37
2019-02-21T11:46:02.217Z,15.40
2019-02-21T11:48:31.475Z,15.53
2019-02-21T11:51:00.749Z,14.53
2019-02-21T11:53:30.052Z,13.93
2019-02-21T11:55:59.349Z,14.60
2019-02-21T11:58:28.665Z,11.90
2019-02-21T12:00:57.928Z,12.40
2019-02-21T12:03:27.237Z,11.83
2019-02-21T12:05:56.485Z,12.67
2019-02-21T12:08:25.741Z,11.63
2019-02-21T12:10:55.063Z,12.77
2019-02-21T12:13:24.367Z,13.63
2019-02-21T12:15:53.634Z,14.20
2019-02-21T12:18:22.910Z,13.93
2019-02-21T12:20:52.227Z,14.00
2019-02-21T12:23:21.496Z,14.70
2019-02-21T12:25:50.771Z,13.83
2019-02-21T12:28:20.053Z,13.93
2019-02-21T12:30:49.377Z,12.80
2019-02-21T12:33:18.671Z,13.63
2019-02-21T12:35:47.973Z,14.30
2019-02-21T12:38:17.293Z,14.77
2019-02-21T12:40:46.696Z,14.70
2019-02-21T12:43:16.044Z,13.63
2019-02-21T12:45:45.398Z,14.80
2019-02-21T12:48:14.696Z,14.23
2019-02-21T12:50:44.694Z,12.43
2019-02-21T12:53:13.309Z,13.47
2019-02-21T12:55:42.606Z,14.20
2019-02-21T12:58:11.909Z,14.30
2019-02-21T13:00:41.330Z,12.80
2019-02-21T13:03:10.611Z,13.93
2019-02-21T13:05:41.379Z,14.13
2019-02-21T13:08:09.440Z,13.73
2019-02-21T13:10:38.719Z,14.23
2019-02-21T13:13:08.015Z,13.57
2019-02-21T13:15:37.334Z,13.73
2019-02-21T13:18:15.506Z,13.93
2019-02-21T13:20:36.029Z,12.53
2019-02-21T13:23:05.407Z,12.90
2019-02-21T13:25:34.698Z,11.53
2019-02-21T13:28:04.040Z,11.00
2019-02-21T13:30:33.405Z,12.03
2019-02-21T13:33:02.757Z,11.60
2019-02-21T13:35:32.023Z,10.80
2019-02-21T13:38:01.462Z,10.13
2019-02-21T13:40:30.802Z,9.23
2019-02-21T13:43:00.113Z,10.73
2019-02-21T13:45:29.402Z,12.20
2019-02-21T13:47:58.723Z,11.23
2019-02-21T13:50:28.129Z,8.77
2019-02-21T13:52:57.462Z,12.00
2019-02-21T13:55:26.771Z,12.10
2019-02-21T13:57:56.039Z,12.10
2019-02-21T14:00:25.356Z,11.20
2019-02-21T14:02:54.631Z,13.23
2019-02-21T14:05:23.888Z,13.67
2019-02-21T14:07:53.271Z,13.83
2019-02-21T14:10:22.494Z,15.53
2019-02-21T14:12:51.821Z,14.27
2019-02-21T14:15:22.831Z,15.17
2019-02-21T14:17:52.175Z,15.10
2019-02-21T14:20:21.473Z,13.53
2019-02-21T14:22:50.763Z,15.90
2019-02-21T14:25:20.095Z,15.60
2019-02-21T14:27:49.385Z,15.60
2019-02-21T14:30:18.779Z,16.83
2019-02-21T14:32:48.060Z,16.03
2019-02-21T14:35:17.358Z,15.73
2019-02-21T14:37:46.668Z,15.03
2019-02-21T14:40:16.020Z,11.77
2019-02-21T14:42:45.421Z,16.33
2019-02-21T14:45:16.277Z,16.07
2019-02-21T14:47:45.587Z,15.50
2019-02-21T14:50:14.847Z,17.27
2019-02-21T14:52:44.132Z,15.87
2019-02-21T14:55:13.832Z,15.87
2019-02-21T14:57:43.128Z,15.90
2019-02-21T15:00:15.306Z,16.77
2019-02-21T15:02:44.596Z,16.27
2019-02-21T15:05:13.958Z,17.17
2019-02-21T15:07:43.269Z,15.87
2019-02-21T15:10:12.640Z,15.97
2019-02-21T15:12:42.065Z,17.70
2019-02-21T15:15:14.386Z,17.60
2019-02-21T15:17:43.727Z,17.70
2019-02-21T15:20:13.749Z,17.90
2019-02-21T15:22:43.240Z,18.30
2019-02-21T15:25:12.528Z,17.40
2019-02-21T15:27:41.847Z,18.40
2019-02-21T15:30:13.554Z,17.87
2019-02-21T15:32:44.761Z,18.20
2019-02-21T15:35:12.195Z,18.53
2019-02-21T15:37:41.664Z,18.57
2019-02-21T15:40:10.973Z,17.90
2019-02-21T15:42:40.260Z,17.90
2019-02-21T15:45:21.945Z,17.47
2019-02-21T15:47:40.893Z,19.60
2019-02-21T15:50:11.505Z,19.30
2019-02-21T15:52:40.828Z,19.07
2019-02-21T15:55:12.700Z,18.60
2019-02-21T15:57:40.564Z,19.43
2019-02-21T16:00:11.817Z,19.30
2019-02-21T16:02:41.301Z,18.77
2019-02-21T16:05:10.812Z,18.07
2019-02-21T16:07:39.983Z,18.57
2019-02-21T16:10:11.346Z,18.23
2019-02-21T16:12:43.843Z,17.73
2019-02-21T16:15:16.073Z,18.37
2019-02-21T16:17:42.085Z,18.70
2019-02-21T16:20:12.409Z,19.13
2019-02-21T16:22:41.744Z,18.93
2019-02-21T16:25:13.087Z,19.53
2019-02-21T16:27:42.363Z,20.00
2019-02-21T16:30:12.761Z,20.10
2019-02-21T16:32:40.988Z,21.27
2019-02-21T16:35:11.021Z,21.23
2019-02-21T16:37:40.409Z,21.97
2019-02-21T16:40:11.263Z,22.47
2019-02-21T16:42:40.758Z,23.30
2019-02-21T16:45:11.378Z,23.87
2019-02-21T16:47:41.011Z,23.03
2019-02-21T16:50:11.254Z,22.97
2019-02-21T16:52:40.623Z,24.77
2019-02-21T16:55:12.178Z,24.73
2019-02-21T16:57:41.484Z,24.60
2019-02-21T17:00:11.807Z,25.37
2019-02-21T17:02:41.156Z,25.50
2019-02-21T17:05:10.599Z,26.27
2019-02-21T17:07:40.018Z,26.33
2019-02-21T17:10:09.492Z,26.53
2019-02-21T17:12:38.849Z,26.83
2019-02-21T17:15:09.351Z,27.47
2019-02-21T17:17:38.699Z,27.37
2019-02-21T17:20:09.875Z,24.00
2019-02-21T17:22:39.330Z,27.47
2019-02-21T17:25:09.755Z,28.27
2019-02-21T17:27:39.107Z,27.40
2019-02-21T17:30:09.565Z,27.07
2019-02-21T17:32:38.866Z,28.83
2019-02-21T17:35:08.239Z,28.53
2019-02-21T17:37:37.662Z,29.40
2019-02-21T17:40:08.622Z,29.93
2019-02-21T17:42:37.940Z,29.70
2019-02-21T17:45:08.040Z,30.20
2019-02-21T17:47:37.441Z,30.47
2019-02-21T17:50:07.777Z,30.20
2019-02-21T17:52:37.093Z,29.67
2019-02-21T17:55:06.610Z,30.57
2019-02-21T17:57:37.007Z,31.63
2019-02-21T18:00:07.433Z,29.70
2019-02-21T18:02:36.822Z,31.50
2019-02-21T18:05:06.531Z,32.97
2019-02-21T18:07:36.731Z,31.33
2019-02-21T18:10:06.033Z,33.03
2019-02-21T18:12:35.368Z,31.10
2019-02-21T18:15:05.310Z,31.67
2019-02-21T18:17:34.629Z,32.13
2019-02-21T18:20:04.010Z,32.40
2019-02-21T18:22:33.315Z,33.97
2019-02-21T18:25:02.605Z,33.90
2019-02-21T18:27:31.987Z,32.77
2019-02-21T18:30:01.357Z,33.70
2019-02-21T18:32:30.793Z,33.67
2019-02-21T18:35:00.318Z,32.13
2019-02-21T18:37:29.451Z,34.13
2019-02-21T18:39:58.794Z,33.60
2019-02-21T18:42:28.179Z,34.63
2019-02-21T18:44:57.524Z,34.80
2019-02-21T18:47:26.915Z,35.30
2019-02-21T18:49:56.247Z,29.17
2019-02-21T18:52:25.607Z,38.17
2019-02-21T18:54:54.897Z,33.50
2019-02-21T18:57:24.195Z,37.50
2019-02-21T18:59:53.590Z,38.53
2019-02-21T19:02:22.930Z,36.17
2019-02-21T19:04:52.247Z,39.03
2019-02-21T19:07:21.634Z,36.37
2019-02-21T19:09:50.999Z,39.70
2019-02-21T19:12:20.336Z,37.60
2019-02-21T19:14:49.735Z,41.20
2019-02-21T19:17:19.062Z,41.13
2019-02-21T19:19:48.369Z,40.47
2019-02-21T19:22:17.672Z,42.83
2019-02-21T19:24:48.365Z,41.13
2019-02-21T19:27:17.727Z,42.97
2019-02-21T19:29:47.020Z,43.07
2019-02-21T19:32:16.437Z,44.33
2019-02-21T19:34:45.704Z,43.17
2019-02-21T19:37:15.019Z,44.17
2019-02-21T19:39:44.328Z,44.47
2019-02-21T19:42:13.661Z,45.40
2019-02-21T19:44:42.977Z,45.27
2019-02-21T19:47:12.383Z,46.83
2019-02-21T19:49:41.987Z,40.93
2019-02-21T19:52:11.373Z,43.90
2019-02-21T19:54:40.677Z,42.10
2019-02-21T19:57:10.062Z,47.27
2019-02-21T19:59:39.360Z,47.87
2019-02-21T20:02:08.664Z,47.70
2019-02-21T20:04:37.991Z,47.70
2019-02-21T20:07:07.269Z,47.40
2019-02-21T20:09:36.589Z,47.83
2019-02-21T20:12:05.920Z,47.57
2019-02-21T20:14:35.307Z,49.77
2019-02-21T20:17:04.626Z,47.83
2019-02-21T20:19:34.021Z,45.97
2019-02-21T20:22:03.389Z,49.97
2019-02-21T20:24:32.669Z,48.17
2019-02-21T20:27:02.004Z,47.03
2019-02-21T20:29:31.355Z,46.97
2019-02-21T20:32:00.657Z,46.73
2019-02-21T20:34:29.961Z,48.93
2019-02-21T20:36:59.294Z,47.80
2019-02-21T20:39:28.611Z,47.10
2019-02-21T20:41:57.996Z,48.07
2019-02-21T20:44:27.318Z,47.67
2019-02-21T20:46:56.603Z,47.83
2019-02-21T20:49:25.926Z,49.90
2019-02-21T20:51:56.795Z,50.00
2019-02-21T20:54:26.172Z,51.87
2019-02-21T20:56:55.546Z,51.30
2019-02-21T20:59:24.846Z,46.43
2019-02-21T21:01:54.191Z,50.13
2019-02-21T21:04:23.550Z,49.07
2019-02-21T21:06:52.896Z,48.90
2019-02-21T21:09:22.214Z,50.10
2019-02-21T21:11:51.588Z,49.20
2019-02-21T21:14:20.959Z,48.03
2019-02-21T21:16:50.289Z,47.10
2019-02-21T21:19:19.568Z,45.30
2019-02-21T21:21:48.989Z,39.87
2019-02-21T21:24:18.374Z,44.93
2019-02-21T21:26:47.682Z,45.13
2019-02-21T21:29:16.974Z,41.37
2019-02-21T21:31:46.291Z,42.77
2019-02-21T21:34:15.575Z,42.73
2019-02-21T21:36:44.895Z,44.60
2019-02-21T21:39:14.202Z,38.80
2019-02-21T21:41:43.506Z,43.73
2019-02-21T21:44:12.799Z,42.60
2019-02-21T21:46:42.060Z,41.43
2019-02-21T21:49:11.490Z,39.77
2019-02-21T21:51:40.911Z,34.47
2019-02-21T21:54:10.222Z,37.47
2019-02-21T21:56:39.613Z,35.03
2019-02-21T21:59:08.985Z,42.87
2019-02-21T22:01:38.433Z,33.93
2019-02-21T22:04:07.909Z,42.80
2019-02-21T22:06:37.209Z,35.87
2019-02-21T22:09:06.797Z,40.47
2019-02-21T22:11:36.061Z,36.53
2019-02-21T22:14:05.339Z,40.77
2019-02-21T22:16:34.636Z,38.57
2019-02-21T22:19:03.908Z,42.87
2019-02-21T22:21:33.238Z,37.33
2019-02-21T22:24:04.893Z,41.80
2019-02-21T22:26:34.267Z,39.83
2019-02-21T22:29:03.620Z,38.97
2019-02-21T22:31:32.929Z,38.47
2019-02-21T22:34:02.312Z,40.67
2019-02-21T22:36:31.888Z,38.07
2019-02-21T22:39:02.114Z,36.67
2019-02-21T22:41:30.666Z,35.73
2019-02-21T22:44:00.026Z,36.67
2019-02-21T22:46:29.293Z,35.77
2019-02-21T22:48:58.579Z,33.13
2019-02-21T22:51:27.936Z,31.73
2019-02-21T22:53:59.278Z,36.40
2019-02-21T22:56:28.740Z,33.77
2019-02-21T22:58:58.055Z,37.20
2019-02-21T23:01:36.334Z,39.20
2019-02-21T23:04:46.815Z,38.13
2019-02-21T23:07:50.035Z,37.67
2019-02-21T23:10:19.432Z,37.07
2019-02-21T23:12:48.741Z,34.10
2019-02-21T23:15:20.840Z,37.47
2019-02-21T23:17:50.311Z,35.13
2019-02-21T23:20:19.731Z,29.23
2019-02-21T23:22:48.996Z,29.17
2019-02-21T23:25:18.358Z,37.53
2019-02-21T23:27:50.369Z,35.77
2019-02-21T23:30:19.721Z,36.27
2019-02-21T23:32:49.085Z,27.73
2019-02-21T23:35:20.310Z,36.10
2019-02-21T23:37:49.808Z,35.70
2019-02-21T23:40:19.245Z,28.97
2019-02-21T23:42:48.493Z,35.10
2019-02-21T23:45:17.785Z,32.83
2019-02-21T23:47:49.899Z,35.00
2019-02-21T23:50:16.462Z,33.67
2019-02-21T23:52:45.877Z,33.33
2019-02-21T23:55:15.151Z,32.83
2019-02-21T23:57:44.427Z,32.83
